Time;durP1;ratioP1;P1;durP2;ratioP2;P2;SDS_P1;SDS_P2;PMS_P1;PMS_P2;Temp;Humidity;BMP_temperature;BMP_pressure;BME280_temperature;BME280_humidity;BME280_pressure;Samples;Min_cycle;Max_cycle;Signal;HPM_P1;HPM_P2
2023/03/20 00:02:24;;;;;;;16.15;6.75;;;10.90;99.90;;;10.81;100.00;101329.88;5146467;28;20130;-68
2023/03/20 00:04:56;;;;;;;16.20;6.97;;;10.80;99.90;;;10.85;100.00;101337.00;5145096;28;20129;-66
2023/03/20 00:07:29;;;;;;;16.02;7.40;;;10.90;99.90;;;10.85;100.00;101332.69;5146380;28;20054;-67
2023/03/20 00:10:02;;;;;;;19.23;8.35;;;10.90;99.90;;;10.85;100.00;101330.09;5145935;28;20039;-68
2023/03/20 00:12:34;;;;;;;20.85;8.60;;;10.90;99.90;;;10.81;100.00;101345.53;5144666;28;20448;-68
2023/03/20 00:15:22;;;;;;;22.38;9.18;;;10.90;99.90;;;10.80;100.00;101348.97;5146300;28;20046;-67
2023/03/20 00:17:55;;;;;;;20.00;8.23;;;10.80;99.90;;;10.78;100.00;101345.41;5145992;28;20047;-67
2023/03/20 00:20:28;;;;;;;18.73;7.95;;;10.80;99.90;;;10.78;100.00;101350.63;5285299;23;20046;-70
2023/03/20 00:23:00;;;;;;;18.73;8.00;;;10.80;99.90;;;10.78;100.00;101350.63;5144736;28;20043;-70
2023/03/20 00:25:35;;;;;;;18.38;7.82;;;10.80;99.90;;;10.82;100.00;101352.50;5144764;28;20050;-71
2023/03/20 00:28:39;;;;;;;17.33;7.10;;;10.80;99.90;;;10.87;100.00;101357.09;5138361;28;20125;-69
2023/03/20 00:31:23;;;;;;;18.45;8.10;;;10.90;99.90;;;10.89;100.00;101349.38;5138168;28;20045;-70
2023/03/20 00:34:00;;;;;;;16.02;6.82;;;10.90;99.90;;;10.94;100.00;101347.81;5132023;28;20051;-69
2023/03/20 00:36:33;;;;;;;;;;;11.00;99.90;;;10.94;100.00;101358.25;5133109;28;20065;-69
2023/03/20 00:39:07;;;;;;;22.33;9.13;;;10.90;99.90;;;10.92;100.00;101362.53;5135395;28;20008;-69
2023/03/20 00:41:44;;;;;;;16.65;7.57;;;11.00;99.90;;;10.91;100.00;101371.19;5144301;28;20046;-69
2023/03/20 00:44:24;;;;;;;23.42;8.98;;;10.90;99.90;;;10.91;100.00;101378.13;5143203;28;20077;-70
2023/03/20 00:46:59;;;;;;;17.85;7.30;;;10.90;99.90;;;10.90;100.00;101366.81;5136245;28;20035;-70
2023/03/20 00:49:35;;;;;;;19.77;8.27;;;10.90;99.90;;;10.90;100.00;101382.44;5159213;28;20407;-69
2023/03/20 00:52:07;;;;;;;19.55;8.63;;;10.90;99.90;;;10.91;100.00;101380.72;5140044;28;20039;-70
2023/03/20 00:54:40;;;;;;;20.73;8.25;;;11.00;99.90;;;10.89;100.00;101375.47;5125413;28;20110;-69
2023/03/20 00:57:20;;;;;;;23.77;9.38;;;10.90;99.90;;;10.86;100.00;101380.53;5135244;28;20058;-69
2023/03/20 00:59:59;;;;;;;20.17;9.20;;;10.90;99.90;;;10.81;100.00;101377.72;5150599;28;20043;-70
2023/03/20 01:02:33;;;;;;;21.35;8.35;;;10.90;99.90;;;10.81;100.00;101384.66;5134881;28;20157;-70
2023/03/20 01:05:05;;;;;;;21.17;9.07;;;10.80;99.90;;;10.80;100.00;101381.16;5131210;28;20118;-70
2023/03/20 01:07:38;;;;;;;24.33;9.18;;;10.80;99.90;;;10.75;100.00;101387.88;5147310;28;20051;-69
2023/03/20 01:10:11;;;;;;;21.80;9.07;;;10.80;99.90;;;10.70;100.00;101386.81;5124532;28;20102;-70
2023/03/20 01:12:46;;;;;;;23.15;9.52;;;10.80;99.90;;;10.68;100.00;101391.03;5139901;28;20106;-70
2023/03/20 01:15:22;;;;;;;20.67;8.00;;;10.70;99.90;;;10.68;100.00;101387.53;5138916;28;20058;-70
2023/03/20 01:17:54;;;;;;;20.92;9.05;;;10.80;99.90;;;10.65;100.00;101390.03;5146752;28;20132;-69
2023/03/20 01:20:30;;;;;;;20.15;8.43;;;10.70;99.90;;;10.65;100.00;101385.72;5141914;28;20047;-69
2023/03/20 01:23:02;;;;;;;18.35;7.28;;;10.70;99.90;;;10.67;100.00;101389.25;5124515;28;20062;-70
2023/03/20 01:25:35;;;;;;;17.55;7.55;;;10.70;99.90;;;10.68;100.00;101384.94;5131575;28;20043;-70
2023/03/20 01:28:17;;;;;;;17.15;7.18;;;10.70;99.90;;;10.70;100.00;101378.09;5138938;28;20098;-70
2023/03/20 01:30:49;;;;;;;18.00;7.65;;;10.70;99.90;;;10.72;100.00;101376.44;5148602;28;20047;-69
2023/03/20 01:33:25;;;;;;;18.55;7.45;;;10.70;99.90;;;10.73;100.00;101378.22;5130665;28;20039;-69
2023/03/20 01:36:00;;;;;;;17.90;7.65;;;10.80;99.90;;;10.72;100.00;101371.22;5123768;28;20559;-70
2023/03/20 01:38:32;;;;;;;18.65;7.88;;;10.70;99.90;;;10.71;100.00;101377.28;5139047;28;20625;-70
2023/03/20 01:41:11;;;;;;;19.85;8.10;;;10.70;99.90;;;10.70;100.00;101378.09;5142160;28;20042;-70
2023/03/20 01:43:46;;;;;;;20.23;8.70;;;10.70;99.90;;;10.70;100.00;101372.88;5141272;28;20400;-70
2023/03/20 01:46:27;;;;;;;23.52;9.23;;;10.70;99.90;;;10.65;100.00;101374.38;5122487;28;20043;-69
2023/03/20 01:49:29;;;;;;;19.17;7.95;;;10.70;99.90;;;10.64;100.00;101373.50;5146691;28;20057;-69
2023/03/20 01:52:05;;;;;;;23.80;8.40;;;10.60;99.90;;;10.59;100.00;101373.28;5138107;28;20054;-70
2023/03/20 01:54:39;;;;;;;20.08;8.80;;;10.60;99.90;;;10.59;100.00;101367.19;5138072;28;20043;-70
2023/03/20 01:57:19;;;;;;;17.63;7.32;;;10.60;99.90;;;10.60;100.00;101368.97;5150250;28;20050;-70
2023/03/20 02:00:00;;;;;;;17.92;7.28;;;10.60;99.90;;;10.63;100.00;101362.97;5149886;28;20412;-69
2023/03/20 02:02:33;;;;;;;14.65;6.30;;;10.60;99.90;;;10.65;100.00;101359.63;5146371;28;20061;-70
2023/03/20 02:05:10;;;;;;;18.33;7.75;;;10.60;99.90;;;10.66;100.00;101360.53;5126140;28;20039;-70
2023/03/20 02:07:49;;;;;;;17.52;6.82;;;10.60;99.90;;;10.65;100.00;101354.41;5158032;28;20050;-69
2023/03/20 02:10:22;;;;;;;17.33;6.82;;;10.60;99.90;;;10.66;100.00;101355.31;5142282;28;20134;-70
2023/03/20 02:13:06;;;;;;;19.35;7.32;;;10.60;99.90;;;10.65;100.00;101349.22;5142292;28;20125;-69
2023/03/20 02:16:04;;;;;;;15.00;6.28;;;10.60;99.90;;;10.66;100.00;101360.53;5151075;28;20046;-70
2023/03/20 02:18:56;;;;;;;19.60;8.32;;;10.60;99.90;;;10.64;100.00;101360.47;5133780;28;20055;-70
2023/03/20 02:22:02;;;;;;;18.00;6.85;;;10.60;99.90;;;10.61;100.00;101368.13;5135364;28;20054;-69
2023/03/20 02:25:20;;;;;;;18.70;7.38;;;10.60;99.90;;;10.60;100.00;101362.03;5137465;28;20057;-70
2023/03/20 02:28:20;;;;;;;21.27;8.50;;;10.60;99.90;;;10.57;100.00;101359.31;5138981;28;20051;-69
2023/03/20 02:31:17;;;;;;;16.55;7.05;;;10.60;99.90;;;10.53;100.00;101367.81;5143900;28;20055;-70
2023/03/20 02:34:28;;;;;;;17.08;7.25;;;10.60;99.90;;;10.53;100.00;101374.75;5140017;28;20165;-70
2023/03/20 02:37:36;;;;;;;16.13;7.07;;;10.50;99.90;;;10.53;100.00;101366.91;5156896;28;20039;-70
2023/03/20 02:40:20;;;;;;;18.42;7.05;;;10.50;99.90;;;10.51;100.00;101377.28;5141391;28;20562;-70
2023/03/20 02:43:01;;;;;;;15.65;6.85;;;10.60;99.90;;;10.48;100.00;101377.13;5139880;28;20069;-69
2023/03/20 02:45:42;;;;;;;17.60;7.25;;;10.60;99.90;;;10.50;100.00;101372.00;5138090;28;20090;-70
2023/03/20 02:48:34;;;;;;;17.58;6.90;;;10.50;99.90;;;10.50;100.00;101359.88;5148015;28;20075;-69
2023/03/20 02:51:16;;;;;;;14.40;6.10;;;10.50;99.90;;;10.54;100.00;101355.66;5141194;28;20495;-70
2023/03/20 02:53:57;;;;;;;15.98;6.15;;;10.60;99.90;;;10.56;100.00;101354.00;5144062;28;20086;-70
2023/03/20 02:56:37;;;;;;;14.38;5.65;;;10.60;99.90;;;10.58;100.00;101358.47;5144289;28;20051;-70
2023/03/20 02:59:22;;;;;;;13.52;5.72;;;10.60;99.90;;;10.57;100.00;101364.53;5149318;28;20080;-70
2023/03/20 03:02:04;;;;;;;16.73;6.55;;;10.60;99.90;;;10.56;100.00;101357.53;5137957;28;20059;-69
2023/03/20 03:04:38;;;;;;;;;;;10.60;99.90;;;10.54;100.00;101346.13;5141179;28;20076;-70
2023/03/20 03:07:13;;;;;;;13.98;5.63;;;10.60;99.90;;;10.55;100.00;101347.00;5153213;28;19992;-70
2023/03/20 03:09:54;;;;;;;12.48;5.18;;;10.50;99.90;;;10.52;100.00;101342.56;5144495;28;20051;-70
2023/03/20 03:12:32;;;;;;;14.10;5.95;;;10.50;99.90;;;10.49;100.00;101360.66;5126928;28;20054;-70
2023/03/20 03:15:07;;;;;;;11.50;5.18;;;10.50;99.90;;;10.48;100.00;101371.91;5152338;28;20407;-70
2023/03/20 03:17:45;;;;;;;11.75;4.40;;;10.50;99.90;;;10.48;100.00;101368.44;5141065;28;20389;-70
2023/03/20 03:20:23;;;;;;;13.82;5.78;;;10.50;99.90;;;10.48;100.00;101368.44;5137896;28;20050;-70
2023/03/20 03:22:55;;;;;;;13.45;5.25;;;10.50;99.90;;;10.47;100.00;101370.16;5136943;28;20149;-69
2023/03/20 03:25:33;;;;;;;11.18;4.78;;;10.50;99.90;;;10.47;100.00;101375.34;5158382;28;20055;-70
2023/03/20 03:28:20;;;;;;;13.18;6.35;;;10.50;99.90;;;10.44;100.00;101375.22;5136814;28;20389;-70
2023/03/20 03:30:56;;;;;;;15.05;6.43;;;10.50;99.90;;;10.44;100.00;101374.34;5128387;28;20476;-70
2023/03/20 03:33:30;;;;;;;15.95;6.65;;;10.40;99.90;;;10.44;100.00;101370.03;5148961;28;20412;-70
2023/03/20 03:36:15;;;;;;;16.70;6.78;;;10.40;99.90;;;10.45;100.00;101383.94;5140219;28;20070;-69
2023/03/20 03:38:57;;;;;;;12.57;5.93;;;10.40;99.90;;;10.44;100.00;101389.97;5140499;28;20068;-70
2023/03/20 03:41:36;;;;;;;18.30;6.43;;;10.40;99.90;;;10.43;100.00;101389.09;5139359;28;20054;-70
2023/03/20 03:44:14;;;;;;;15.65;6.05;;;10.40;99.90;;;10.39;100.00;101386.28;5149315;28;20090;-69
2023/03/20 03:46:51;;;;;;;15.05;6.03;;;10.40;99.90;;;10.37;100.00;101367.97;5140328;28;20050;-71
2023/03/20 03:49:28;;;;;;;14.45;6.05;;;10.40;99.90;;;10.40;100.00;101364.59;5137870;28;20047;-70
2023/03/20 03:52:04;;;;;;;13.07;4.97;;;10.40;99.90;;;10.41;100.00;101346.41;5127361;28;20051;-70
2023/03/20 03:54:43;;;;;;;12.18;5.10;;;10.40;99.90;;;10.43;100.00;101352.59;5125824;28;20066;-70
2023/03/20 03:57:44;;;;;;;13.27;5.22;;;10.40;99.90;;;10.45;100.00;101357.88;5133458;28;20457;-70
2023/03/20 04:00:22;;;;;;;;;;;10.40;99.90;;;10.42;100.00;101350.78;5132805;28;20587;-70
2023/03/20 04:02:58;;;;;;;11.20;4.70;;;10.40;99.90;;;10.42;100.00;101356.00;5133446;28;20386;-70
2023/03/20 04:05:33;;;;;;;12.40;4.80;;;10.40;99.90;;;10.40;100.00;101352.44;5132318;28;20551;-70
2023/03/20 04:08:06;;;;;;;9.80;4.35;;;10.40;99.90;;;10.37;100.00;101341.91;5140778;28;20051;-70
2023/03/20 04:10:39;;;;;;;12.23;4.97;;;10.30;99.90;;;10.35;100.00;101363.50;5133081;28;20042;-69
2023/03/20 04:13:15;;;;;;;11.77;5.18;;;10.30;99.90;;;10.33;100.00;101381.66;5139510;28;20428;-70
2023/03/20 04:15:47;;;;;;;16.08;5.93;;;10.30;99.90;;;10.28;100.00;101383.16;5139381;28;20138;-69
2023/03/20 04:18:20;;;;;;;16.95;6.35;;;10.20;99.90;;;10.23;100.00;101372.53;5135855;28;20047;-69
2023/03/20 04:20:54;;;;;;;14.10;5.45;;;10.20;99.90;;;10.24;100.00;101376.06;5150175;28;20049;-69
2023/03/20 04:23:27;;;;;;;12.02;5.22;;;10.20;99.90;;;10.27;100.00;101376.19;5138056;28;20070;-70
2023/03/20 04:25:59;;;;;;;13.32;5.43;;;10.20;99.90;;;10.29;100.00;101385.84;5149711;28;20062;-70
2023/03/20 04:28:34;;;;;;;10.23;4.40;;;10.30;99.90;;;10.32;100.00;101379.91;5138136;28;20050;-70
2023/03/20 04:31:27;;;;;;;11.30;4.68;;;10.30;99.90;;;10.34;100.00;101378.25;5131716;28;20413;-69
2023/03/20 04:34:29;;;;;;;9.95;4.00;;;10.30;99.90;;;10.34;100.00;101378.25;5124872;28;20059;-69
2023/03/20 04:37:07;;;;;;;10.80;4.72;;;10.30;99.90;;;10.34;100.00;101388.66;5124966;28;20055;-69
2023/03/20 04:39:54;;;;;;;12.20;5.18;;;10.30;99.90;;;10.29;100.00;101374.53;5148921;28;20051;-70
2023/03/20 04:42:26;;;;;;;15.63;5.68;;;10.30;99.90;;;10.25;100.00;101388.25;5143145;28;20049;-69
2023/03/20 04:45:07;;;;;;;14.57;6.25;;;10.20;99.90;;;10.21;100.00;101386.28;5152526;28;20487;-70
2023/03/20 04:47:42;;;;;;;14.38;5.80;;;10.20;99.90;;;10.18;100.00;101387.06;5128982;28;20051;-70
2023/03/20 04:50:16;;;;;;;15.38;6.10;;;10.20;99.90;;;10.15;100.00;101386.91;5147253;28;20054;-69
2023/03/20 04:52:49;;;;;;;13.38;5.07;;;10.20;99.90;;;10.14;100.00;101376.41;5139778;28;20058;-70
2023/03/20 04:55:21;;;;;;;11.73;4.95;;;10.10;99.90;;;10.12;100.00;101358.13;5144221;28;20057;-69
2023/03/20 04:57:54;;;;;;;11.50;4.72;;;10.10;99.90;;;10.12;100.00;101367.66;5142907;28;20038;-71
2023/03/20 05:00:28;;;;;;;11.45;4.20;;;10.10;99.90;;;10.13;100.00;101364.22;5139313;28;20039;-70
2023/03/20 05:03:01;;;;;;;10.80;4.32;;;10.10;99.90;;;10.13;100.00;101361.63;5156984;28;20051;-69
2023/03/20 05:05:36;;;;;;;10.75;4.78;;;10.10;99.90;;;10.12;100.00;101359.84;5136722;28;20047;-70
2023/03/20 05:08:09;;;;;;;10.27;4.50;;;10.10;99.90;;;10.10;100.00;101359.75;5132709;28;20062;-70
2023/03/20 05:10:43;;;;;;;10.20;4.18;;;10.10;99.90;;;10.08;100.00;101358.78;5139621;28;20114;-69
2023/03/20 05:13:33;;;;;;;10.27;3.83;;;10.00;99.90;;;10.04;100.00;101359.47;5124410;28;20074;-70
2023/03/20 05:16:25;;;;;;;8.43;3.30;;;10.00;99.90;;;10.02;100.00;101358.50;5155103;28;20416;-70
2023/03/20 05:19:06;;;;;;;10.18;4.05;;;10.00;99.90;;;9.98;100.00;101357.50;5132106;28;20050;-69
2023/03/20 05:22:05;;;;;;;9.98;3.80;;;10.00;99.90;;;9.95;100.00;101352.13;5117340;28;20069;-69
2023/03/20 05:24:52;;;;;;;10.48;4.13;;;9.90;99.90;;;9.92;100.00;101345.91;5130962;28;20062;-70
2023/03/20 05:27:44;;;;;;;7.82;3.28;;;9.90;99.90;;;9.89;100.00;101351.84;5136201;28;20113;-70
2023/03/20 05:30:37;;;;;;;;;;;9.90;99.90;;;9.85;100.00;101349.94;5136722;28;20079;-69
2023/03/20 05:33:39;;;;;;;8.07;3.83;;;9.80;99.90;;;9.82;100.00;101349.78;5138758;28;19957;-69
2023/03/20 05:36:18;;;;;;;9.68;3.80;;;9.80;99.90;;;9.78;100.00;101342.66;5151033;28;20125;-69
2023/03/20 05:39:13;;;;;;;10.65;3.85;;;9.80;99.90;;;9.75;100.00;101346.00;5134436;28;20518;-71
2023/03/20 05:42:05;;;;;;;8.98;3.83;;;9.80;99.90;;;9.70;100.00;101349.19;5133335;28;20597;-70
2023/03/20 05:44:52;;;;;;;9.50;4.18;;;9.70;99.90;;;9.64;100.00;101344.59;5123255;28;20150;-69
2023/03/20 05:47:57;;;;;;;10.05;4.35;;;9.70;99.90;;;9.60;100.00;101350.50;5112997;28;20058;-69
2023/03/20 05:50:30;;;;;;;10.02;4.00;;;9.60;99.90;;;9.61;100.00;101351.38;5130166;28;20040;-70
2023/03/20 05:53:21;;;;;;;11.05;4.05;;;9.60;99.90;;;9.60;100.00;101347.00;5131878;28;20055;-69
2023/03/20 05:56:10;;;;;;;11.70;4.15;;;9.60;99.90;;;9.58;100.00;101354.72;5141479;28;20057;-71
2023/03/20 05:58:45;;;;;;;12.73;4.82;;;9.60;99.90;;;9.57;100.00;101367.66;5144196;28;20082;-71
2023/03/20 06:01:47;;;;;;;12.40;4.65;;;9.60;99.90;;;9.55;100.00;101379.72;5142373;28;20051;-71
2023/03/20 06:04:31;;;;;;;13.07;4.25;;;9.50;99.90;;;9.53;100.00;101382.25;5142651;28;20416;-71
2023/03/20 06:07:28;;;;;;;11.55;4.40;;;9.60;99.90;;;9.54;100.00;101380.53;5143648;28;20054;-71
2023/03/20 06:10:06;;;;;;;9.98;4.50;;;9.50;99.90;;;9.57;100.00;101384.16;5143757;28;20034;-67
2023/03/20 06:12:39;;;;;;;10.68;4.90;;;9.50;99.90;;;9.61;100.00;101374.81;5145655;28;20050;-73
2023/03/20 06:15:12;;;;;;;12.60;5.88;;;9.60;99.90;;;9.65;100.00;101384.53;5158516;28;20459;-69
2023/03/20 06:17:48;;;;;;;11.07;4.35;;;9.60;99.90;;;9.69;100.00;101376.06;5142290;28;20051;-73
2023/03/20 06:20:21;;;;;;;11.20;4.45;;;9.70;99.90;;;9.71;100.00;101374.41;5213896;23;20149;-90
2023/03/20 06:22:56;;;;;;;12.30;5.00;;;9.70;99.90;;;9.73;100.00;101371.06;5177784;23;20046;-69
2023/03/20 06:25:28;;;;;;;12.40;4.70;;;9.70;99.90;;;9.75;100.00;101371.13;5161179;28;20050;-69
2023/03/20 06:28:05;;;;;;;13.10;5.00;;;9.70;99.90;;;9.75;100.00;101366.81;5162817;28;20038;-68
2023/03/20 06:30:39;;;;;;;11.60;4.47;;;9.70;99.90;;;9.78;100.00;101373.91;5141852;28;20038;-69
2023/03/20 06:33:14;;;;;;;11.73;4.63;;;9.70;99.90;;;9.82;100.00;101367.09;5157460;28;20058;-69
2023/03/20 06:36:05;;;;;;;11.98;4.32;;;9.80;99.90;;;9.86;100.00;101366.44;5141532;28;20057;-69
2023/03/20 06:38:41;;;;;;;11.57;4.88;;;9.80;99.90;;;9.90;100.00;101358.81;5144294;28;20426;-69
2023/03/20 06:41:18;;;;;;;11.80;4.35;;;9.90;99.90;;;9.98;100.00;101365.31;5146611;28;20126;-68
2023/03/20 06:43:50;;;;;;;12.23;4.95;;;9.90;99.90;;;10.10;100.00;101375.38;5145199;28;20126;-68
2023/03/20 06:46:25;;;;;;;11.82;4.93;;;10.00;99.90;;;10.23;100.00;101372.53;5153945;28;20054;-68
2023/03/20 06:49:00;;;;;;;14.13;5.38;;;10.10;99.90;;;10.40;100.00;101375.91;5146706;28;20038;-68
2023/03/20 06:51:32;;;;;;;13.27;5.13;;;10.30;99.90;;;10.64;100.00;101388.25;5161323;28;20054;-68
2023/03/20 06:54:06;;;;;;;12.13;5.68;;;10.40;99.90;;;10.92;100.00;101379.91;5154864;28;20130;-68
2023/03/20 06:56:38;;;;;;;17.48;6.18;;;10.60;99.90;;;11.18;100.00;101378.38;5150419;28;20507;-68
2023/03/20 06:59:11;;;;;;;12.23;5.35;;;10.90;99.90;;;11.30;100.00;101381.50;5146642;28;20527;-68
2023/03/20 07:01:44;;;;;;;13.55;5.95;;;11.00;99.90;;;11.32;100.00;101391.16;5129492;28;20038;-69
2023/03/20 07:04:16;;;;;;;12.70;5.85;;;11.10;99.90;;;11.28;100.00;101380.53;5140933;28;20401;-55
2023/03/20 07:06:54;;;;;;;12.80;5.40;;;11.10;99.90;;;11.21;100.00;101375.88;5125462;29;20079;-54
2023/03/20 07:09:29;;;;;;;12.45;5.05;;;11.10;99.90;;;11.15;100.00;101384.38;5126840;28;20043;-54
2023/03/20 07:12:03;;;;;;;11.88;4.85;;;11.00;99.90;;;11.08;100.00;101383.25;5125533;29;20067;-55
2023/03/20 07:14:38;;;;;;;11.00;4.32;;;11.00;99.90;;;11.04;100.00;101394.34;5125520;29;20412;-54
2023/03/20 07:17:13;;;;;;;11.48;4.95;;;10.90;99.90;;;11.00;100.00;101405.47;5125224;29;20043;-54
2023/03/20 07:19:46;;;;;;;10.80;4.63;;;10.90;99.90;;;10.97;100.00;101410.56;5125250;28;20452;-54
2023/03/20 07:22:23;;;;;;;8.55;3.60;;;10.90;99.90;;;11.03;100.00;101412.56;5113174;28;20126;-54
2023/03/20 07:24:58;;;;;;;8.20;3.63;;;10.90;99.90;;;11.90;100.00;101416.16;5161239;28;20102;-54
2023/03/20 07:27:31;;;;;;;10.23;4.10;;;12.00;99.90;;;12.51;100.00;101434.16;5144912;28;20142;-53
2023/03/20 07:30:06;;;;;;;10.07;4.38;;;12.40;99.90;;;12.56;100.00;101437.84;5145025;28;20511;-52
2023/03/20 07:32:39;;;;;;;10.30;4.70;;;12.50;99.90;;;12.50;100.00;101438.50;5144968;28;20049;-51
2023/03/20 07:35:13;;;;;;;15.40;5.90;;;12.40;99.90;;;12.66;100.00;101441.72;5146336;28;20046;-51
2023/03/20 07:37:47;;;;;;;13.95;6.18;;;12.40;99.90;;;13.23;100.00;101448.13;5144894;28;20492;-50
2023/03/20 07:40:21;;;;;;;13.88;5.85;;;12.70;99.90;;;13.76;100.00;101443.81;5144906;28;20133;-52
2023/03/20 07:43:00;;;;;;;14.07;5.65;;;13.10;99.90;;;13.84;99.36;101452.78;5144727;28;20050;-52
2023/03/20 07:46:06;;;;;;;15.20;6.13;;;13.30;99.90;;;13.71;97.82;101453.25;5114409;28;20056;-52
2023/03/20 07:48:39;;;;;;;12.93;5.85;;;13.30;99.90;;;13.46;98.15;101464.63;5140751;28;20063;-52
2023/03/20 07:51:12;;;;;;;12.00;5.38;;;13.10;99.90;;;13.27;98.76;101451.75;5143096;28;20062;-50
2023/03/20 07:53:44;;;;;;;13.15;5.30;;;12.90;99.90;;;13.08;99.44;101455.41;5160723;28;20050;-51
2023/03/20 07:56:18;;;;;;;12.48;5.28;;;12.80;99.90;;;12.88;99.23;101451.22;5144720;28;20065;-50
2023/03/20 07:58:50;;;;;;;12.40;5.22;;;12.70;99.90;;;12.65;100.00;101453.91;5145769;28;20118;-52
2023/03/20 08:01:23;;;;;;;11.63;5.75;;;12.50;99.90;;;12.44;100.00;101456.56;5145665;28;20046;-51
2023/03/20 08:03:55;;;;;;;13.15;5.57;;;12.30;99.90;;;12.27;100.00;101456.78;5145709;28;20050;-52
2023/03/20 08:06:27;;;;;;;10.48;4.53;;;12.20;99.90;;;12.06;100.00;101454.22;5145674;28;20047;-50
2023/03/20 08:09:02;;;;;;;11.43;5.00;;;11.90;99.90;;;11.86;100.00;101461.28;5160130;28;20126;-52
2023/03/20 08:11:36;;;;;;;10.82;4.78;;;11.80;99.90;;;11.65;100.00;101467.38;5158692;28;20049;-53
2023/03/20 08:14:08;;;;;;;10.05;4.88;;;11.60;99.90;;;11.53;100.00;101468.59;5145525;28;20051;-53
2023/03/20 08:16:40;;;;;;;11.90;5.25;;;11.50;99.90;;;11.43;100.00;101467.31;5145243;28;20042;-51
2023/03/20 08:19:12;;;;;;;14.35;5.20;;;11.40;99.90;;;11.33;100.00;101481.69;5145405;28;20051;-52
2023/03/20 08:21:44;;;;;;;11.82;5.35;;;11.30;99.90;;;11.27;100.00;101472.72;5145075;28;20121;-51
2023/03/20 08:24:17;;;;;;;10.00;4.45;;;11.20;99.90;;;11.23;100.00;101476.94;5145152;28;20046;-52
2023/03/20 08:26:51;;;;;;;9.73;4.25;;;11.20;99.90;;;11.20;100.00;101478.50;5145197;28;20042;-51
2023/03/20 08:29:23;;;;;;;10.48;4.95;;;11.10;99.90;;;11.19;100.00;101479.31;5144728;28;20385;-54
2023/03/20 08:31:56;;;;;;;8.93;3.90;;;11.10;99.90;;;11.23;100.00;101486.47;5144726;28;20039;-53
2023/03/20 08:34:28;;;;;;;9.10;3.83;;;11.10;99.90;;;11.30;100.00;101484.19;5128947;28;20038;-53
2023/03/20 08:37:00;;;;;;;8.38;3.97;;;11.20;99.90;;;11.38;100.00;101476.69;5139582;28;20043;-54
2023/03/20 08:39:33;;;;;;;8.90;3.63;;;11.20;99.90;;;11.47;100.00;101491.81;5159432;28;20050;-54
2023/03/20 08:42:06;;;;;;;7.00;2.88;;;11.30;99.90;;;11.52;100.00;101482.47;5144035;28;20098;-53
2023/03/20 08:44:38;;;;;;;5.32;2.67;;;11.40;99.90;;;11.57;100.00;101480.97;5144435;28;20043;-52
2023/03/20 08:47:11;;;;;;;4.40;2.30;;;11.40;99.90;;;11.63;100.00;101482.09;5144276;28;20042;-54
2023/03/20 08:49:43;;;;;;;6.57;3.33;;;11.50;99.90;;;11.67;100.00;101481.41;5144541;28;20081;-55
2023/03/20 08:52:16;;;;;;;6.72;2.47;;;11.50;99.90;;;11.70;99.27;101480.63;5144167;28;20139;-52
2023/03/20 08:54:48;;;;;;;6.35;2.72;;;11.50;99.90;;;11.71;98.68;101481.53;5144235;28;20039;-56
2023/03/20 08:57:21;;;;;;;4.00;2.20;;;11.50;99.90;;;11.74;98.15;101474.72;5143936;28;20097;-56
2023/03/20 08:59:54;;;;;;;4.80;2.38;;;11.50;99.90;;;11.75;98.11;101481.72;5143457;28;20050;-55
2023/03/20 09:02:26;;;;;;;5.70;2.35;;;11.60;99.90;;;11.80;97.48;101479.28;5143799;28;20039;-53
2023/03/20 09:05:00;;;;;;;4.95;2.42;;;11.60;99.90;;;11.79;96.84;101485.31;5144478;28;20049;-54
2023/03/20 09:07:32;;;;;;;4.00;2.00;;;11.60;99.90;;;11.83;97.05;101485.56;5144362;28;20042;-53
2023/03/20 09:10:05;;;;;;;4.85;2.25;;;11.70;99.90;;;11.91;96.77;101494.59;5144462;28;20046;-54
2023/03/20 09:12:39;;;;;;;3.97;2.10;;;11.70;99.90;;;11.97;95.85;101491.34;5144234;28;20042;-51
2023/03/20 09:15:12;;;;;;;4.93;2.38;;;11.80;99.90;;;12.05;95.31;101489.03;5144170;28;20042;-51
2023/03/20 09:17:44;;;;;;;4.63;2.50;;;11.80;99.90;;;12.08;94.64;101486.56;5142799;28;20101;-53
2023/03/20 09:20:17;;;;;;;5.85;2.60;;;11.80;99.90;;;12.11;93.96;101482.31;5144309;28;20051;-52
2023/03/20 09:22:50;;;;;;;6.45;3.17;;;11.90;99.90;;;12.11;93.11;101489.28;5144574;28;20042;-49
2023/03/20 09:25:23;;;;;;;5.90;2.42;;;11.90;99.90;;;12.12;93.28;101484.09;5144200;28;20085;-53
2023/03/20 09:27:56;;;;;;;5.78;2.55;;;11.90;99.90;;;12.18;92.67;101479.13;5144047;28;20061;-50
2023/03/20 09:30:29;;;;;;;6.00;2.50;;;12.00;99.90;;;12.25;92.18;101474.13;5142441;28;20050;-51
2023/03/20 09:33:02;;;;;;;4.18;2.17;;;12.00;99.90;;;12.29;91.48;101481.25;5144148;28;20150;-52
2023/03/20 09:35:34;;;;;;;4.57;2.05;;;12.00;99.90;;;12.30;90.57;101485.66;5144024;28;20050;-54
2023/03/20 09:38:07;;;;;;;6.45;2.60;;;12.00;99.90;;;12.28;90.18;101479.50;5143933;28;20046;-54
2023/03/20 09:40:53;;;;;;;5.55;2.60;;;12.00;99.90;;;12.28;89.62;101485.59;5143926;28;20452;-54
2023/03/20 09:43:56;;;;;;;5.18;2.35;;;12.10;99.90;;;12.32;89.24;101483.97;5143766;28;20519;-51
2023/03/20 09:46:58;;;;;;;3.22;1.70;;;12.10;99.90;;;12.49;92.40;101482.91;5143755;28;20503;-52
2023/03/20 09:49:44;;;;;;;4.68;2.10;;;12.30;99.90;;;12.66;90.37;101492.28;5140734;28;20499;-53
2023/03/20 09:52:24;;;;;;;5.30;2.47;;;12.40;99.90;;;12.72;89.20;101491.63;5142202;28;20500;-51
2023/03/20 09:55:00;;;;;;;5.60;2.63;;;12.50;99.90;;;12.75;88.96;101492.63;5142345;28;20050;-52
2023/03/20 09:57:39;;;;;;;7.18;2.40;;;12.50;99.90;;;12.77;88.80;101492.66;5143536;28;20055;-53
2023/03/20 10:00:19;;;;;;;4.30;2.25;;;12.50;99.90;;;12.79;88.36;101492.75;5143620;28;20492;-53
2023/03/20 10:02:59;;;;;;;5.07;2.40;;;12.50;99.90;;;12.75;88.04;101492.63;5143788;28;20096;-52
2023/03/20 10:05:37;;;;;;;3.75;1.73;;;12.50;99.90;;;12.75;88.05;101487.38;5142175;28;20046;-53
2023/03/20 10:08:15;;;;;;;4.40;2.38;;;12.50;99.90;;;12.73;87.83;101496.03;5143735;28;20050;-52
2023/03/20 10:10:55;;;;;;;6.15;2.60;;;12.50;99.90;;;12.68;87.47;101481.88;5143520;28;20046;-54
2023/03/20 10:14:09;;;;;;;5.75;2.10;;;12.40;99.90;;;12.64;87.28;101482.59;5147735;28;20039;-52
2023/03/20 10:17:04;;;;;;;5.63;2.22;;;12.40;99.90;;;12.60;87.26;101473.75;5144783;28;20059;-51
2023/03/20 10:19:44;;;;;;;5.53;2.20;;;12.40;99.90;;;12.59;87.48;101479.81;5147452;28;20050;-52
2023/03/20 10:22:24;;;;;;;4.82;2.05;;;12.40;99.90;;;12.61;87.67;101475.53;5147354;28;20053;-51
2023/03/20 10:25:03;;;;;;;4.38;2.28;;;12.40;99.90;;;12.68;88.03;101480.16;5146089;28;20054;-54
2023/03/20 10:27:40;;;;;;;3.17;2.03;;;12.40;99.90;;;12.77;87.90;101475.25;5147401;28;20061;-50
2023/03/20 10:30:30;;;;;;;6.65;2.35;;;12.50;99.90;;;12.87;87.09;101470.38;5147368;28;20406;-52
2023/03/20 10:33:23;;;;;;;4.43;2.35;;;12.60;99.90;;;12.98;87.55;101469.03;5147163;28;20472;-53
2023/03/20 10:36:10;;;;;;;5.13;2.38;;;12.70;99.90;;;13.11;86.85;101475.59;5147246;28;20054;-52
2023/03/20 10:38:57;;;;;;;6.45;3.03;;;12.80;99.90;;;13.20;86.17;101482.06;5147176;28;20061;-56
2023/03/20 10:41:35;;;;;;;5.28;2.40;;;12.90;99.90;;;13.25;85.27;101485.75;5147477;28;20047;-52
2023/03/20 10:44:16;;;;;;;5.97;2.35;;;12.90;99.90;;;13.22;84.83;101477.75;5147019;28;20129;-53
2023/03/20 10:46:53;;;;;;;5.15;2.30;;;13.00;99.90;;;13.22;84.28;101469.03;5147005;28;20047;-51
2023/03/20 10:49:36;;;;;;;7.00;2.35;;;12.90;99.70;;;13.22;84.06;101469.91;5146965;28;20126;-53
2023/03/20 10:52:15;;;;;;;5.38;2.78;;;12.90;99.60;;;13.19;83.70;101469.78;5147034;28;20503;-51
2023/03/20 10:54:52;;;;;;;4.53;2.40;;;12.90;99.40;;;13.15;84.51;101475.75;5146858;28;20051;-53